sensor_id;sensor_type;location;lat;lon;timestamp;pressure;altitude;pressure_sealevel;temperature;humidity
15750;BME280;7976;52.526;13.326;2022-08-21T00:01:21;101093.13;;;20.56;91.47
15750;BME280;7976;52.526;13.326;2022-08-21T00:03:49;101091.41;;;20.55;91.12
15750;BME280;7976;52.526;13.326;2022-08-21T00:06:18;101095.06;;;20.54;91.12
15750;BME280;7976;52.526;13.326;2022-08-21T00:09:06;101096.13;;;20.51;91.06
15750;BME280;7976;52.526;13.326;2022-08-21T00:11:36;101092.84;;;20.48;91.32
15750;BME280;7976;52.526;13.326;2022-08-21T00:14:14;101095.59;;;20.46;91.52
15750;BME280;7976;52.526;13.326;2022-08-21T00:16:41;101099.22;;;20.45;91.31
15750;BME280;7976;52.526;13.326;2022-08-21T00:19:08;101091.38;;;20.44;91.36
15750;BME280;7976;52.526;13.326;2022-08-21T00:21:36;101093.38;;;20.40;91.01
15750;BME280;7976;52.526;13.326;2022-08-21T00:24:05;101090.63;;;20.42;90.62
15750;BME280;7976;52.526;13.326;2022-08-21T00:26:32;101090.63;;;20.42;90.74
15750;BME280;7976;52.526;13.326;2022-08-21T00:29:00;101089.75;;;20.41;90.98
15750;BME280;7976;52.526;13.326;2022-08-21T00:31:27;101085.41;;;20.40;90.78
15750;BME280;7976;52.526;13.326;2022-08-21T00:33:54;101088.19;;;20.39;90.89
15750;BME280;7976;52.526;13.326;2022-08-21T00:36:20;101088.19;;;20.39;90.86
15750;BME280;7976;52.526;13.326;2022-08-21T00:38:47;101086.59;;;20.36;90.86
15750;BME280;7976;52.526;13.326;2022-08-21T00:41:16;101089.59;;;20.32;90.88
15750;BME280;7976;52.526;13.326;2022-08-21T00:43:43;101097.66;;;20.30;91.54
15750;BME280;7976;52.526;13.326;2022-08-21T00:46:10;101093.44;;;20.28;91.45
15750;BME280;7976;52.526;13.326;2022-08-21T00:48:37;101091.94;;;20.24;91.68
15750;BME280;7976;52.526;13.326;2022-08-21T00:51:08;101094.94;;;20.19;92.02
15750;BME280;7976;52.526;13.326;2022-08-21T00:53:42;101088.03;;;20.17;92.21
15750;BME280;7976;52.526;13.326;2022-08-21T00:56:12;101089.91;;;20.15;92.47
15750;BME280;7976;52.526;13.326;2022-08-21T00:58:42;101081.28;;;20.11;92.73
15750;BME280;7976;52.526;13.326;2022-08-21T01:01:09;101085.78;;;20.11;93.09
15750;BME280;7976;52.526;13.326;2022-08-21T01:03:37;101082.38;;;20.09;93.12
15750;BME280;7976;52.526;13.326;2022-08-21T01:06:06;101086.00;;;20.08;92.85
15750;BME280;7976;52.526;13.326;2022-08-21T01:08:33;101079.81;;;20.07;93.28
15750;BME280;7976;52.526;13.326;2022-08-21T01:11:03;101091.31;;;20.08;92.88
15750;BME280;7976;52.526;13.326;2022-08-21T01:13:34;101085.13;;;20.07;93.18
15750;BME280;7976;52.526;13.326;2022-08-21T01:16:09;101084.41;;;20.05;93.35
15750;BME280;7976;52.526;13.326;2022-08-21T01:18:36;101089.81;;;20.04;93.35
15750;BME280;7976;52.526;13.326;2022-08-21T01:21:13;101083.88;;;20.00;93.22
15750;BME280;7976;52.526;13.326;2022-08-21T01:23:46;101085.88;;;19.96;93.20
15750;BME280;7976;52.526;13.326;2022-08-21T01:26:15;101082.59;;;19.93;93.40
15750;BME280;7976;52.526;13.326;2022-08-21T01:28:49;101088.88;;;19.92;93.76
15750;BME280;7976;52.526;13.326;2022-08-21T01:31:22;101081.03;;;19.90;93.74
15750;BME280;7976;52.526;13.326;2022-08-21T01:33:50;101079.28;;;19.89;93.48
15750;BME280;7976;52.526;13.326;2022-08-21T01:36:18;101088.88;;;19.92;93.75
15750;BME280;7976;52.526;13.326;2022-08-21T01:38:48;101088.13;;;19.90;93.66
15750;BME280;7976;52.526;13.326;2022-08-21T01:41:17;101085.47;;;19.90;93.57
15750;BME280;7976;52.526;13.326;2022-08-21T01:43:44;101097.91;;;19.89;93.61
15750;BME280;7976;52.526;13.326;2022-08-21T01:46:13;101098.88;;;19.88;92.97
15750;BME280;7976;52.526;13.326;2022-08-21T01:48:40;101093.66;;;19.87;93.18
15750;BME280;7976;52.526;13.326;2022-08-21T01:51:08;101089.41;;;19.84;93.06
15750;BME280;7976;52.526;13.326;2022-08-21T01:53:37;101096.66;;;19.82;92.79
15750;BME280;7976;52.526;13.326;2022-08-21T01:56:09;101098.56;;;19.80;92.42
15750;BME280;7976;52.526;13.326;2022-08-21T01:58:36;101091.84;;;19.75;91.51
15750;BME280;7976;52.526;13.326;2022-08-21T02:01:04;101093.66;;;19.74;91.15
15750;BME280;7976;52.526;13.326;2022-08-21T02:03:31;101099.72;;;19.76;90.76
15750;BME280;7976;52.526;13.326;2022-08-21T02:05:58;101103.34;;;19.75;90.07
15750;BME280;7976;52.526;13.326;2022-08-21T02:08:25;101098.84;;;19.76;89.31
15750;BME280;7976;52.526;13.326;2022-08-21T02:10:53;101104.09;;;19.77;89.54
15750;BME280;7976;52.526;13.326;2022-08-21T02:13:20;101104.09;;;19.77;88.97
15750;BME280;7976;52.526;13.326;2022-08-21T02:15:48;101101.63;;;19.74;89.30
15750;BME280;7976;52.526;13.326;2022-08-21T02:18:15;101101.09;;;19.69;88.81
15750;BME280;7976;52.526;13.326;2022-08-21T02:20:47;101096.00;;;19.66;88.77
15750;BME280;7976;52.526;13.326;2022-08-21T02:23:15;101100.78;;;19.61;88.63
15750;BME280;7976;52.526;13.326;2022-08-21T02:25:42;101094.94;;;19.56;89.26
15750;BME280;7976;52.526;13.326;2022-08-21T02:28:13;101094.38;;;19.51;89.29
15750;BME280;7976;52.526;13.326;2022-08-21T02:30:45;101096.41;;;19.48;89.21
15750;BME280;7976;52.526;13.326;2022-08-21T02:33:12;101086.09;;;19.43;88.88
15750;BME280;7976;52.526;13.326;2022-08-21T02:35:42;101095.13;;;19.41;89.14
15750;BME280;7976;52.526;13.326;2022-08-21T02:38:13;101096.19;;;19.38;89.55
15750;BME280;7976;52.526;13.326;2022-08-21T02:40:45;101096.19;;;19.38;89.25
15750;BME280;7976;52.526;13.326;2022-08-21T02:43:15;101089.19;;;19.37;89.46
15750;BME280;7976;52.526;13.326;2022-08-21T02:45:44;101093.44;;;19.40;89.35
15750;BME280;7976;52.526;13.326;2022-08-21T02:48:15;101092.56;;;19.39;89.45
15750;BME280;7976;52.526;13.326;2022-08-21T02:50:45;101087.47;;;19.36;89.21
15750;BME280;7976;52.526;13.326;2022-08-21T02:53:15;101088.66;;;19.32;88.73
15750;BME280;7976;52.526;13.326;2022-08-21T02:55:44;101092.53;;;19.27;88.79
15750;BME280;7976;52.526;13.326;2022-08-21T02:58:15;101082.94;;;19.24;89.05
15750;BME280;7976;52.526;13.326;2022-08-21T03:00:43;101095.50;;;19.22;88.98
15750;BME280;7976;52.526;13.326;2022-08-21T03:03:10;101092.84;;;19.22;88.98
15750;BME280;7976;52.526;13.326;2022-08-21T03:05:38;101096.53;;;19.20;88.37
15750;BME280;7976;52.526;13.326;2022-08-21T03:08:08;101093.13;;;19.18;88.13
15750;BME280;7976;52.526;13.326;2022-08-21T03:10:36;101098.66;;;19.15;88.43
15750;BME280;7976;52.526;13.326;2022-08-21T03:13:06;101096.09;;;19.13;88.16
15750;BME280;7976;52.526;13.326;2022-08-21T03:15:36;101096.09;;;19.13;88.20
15750;BME280;7976;52.526;13.326;2022-08-21T03:18:04;101093.44;;;19.13;87.96
15750;BME280;7976;52.526;13.326;2022-08-21T03:20:34;101082.06;;;19.11;87.71
15750;BME280;7976;52.526;13.326;2022-08-21T03:23:03;101086.63;;;19.09;87.46
15750;BME280;7976;52.526;13.326;2022-08-21T03:25:32;101091.22;;;19.07;87.26
15750;BME280;7976;52.526;13.326;2022-08-21T03:28:00;101091.22;;;19.07;87.39
15750;BME280;7976;52.526;13.326;2022-08-21T03:30:28;101091.28;;;19.06;87.47
15750;BME280;7976;52.526;13.326;2022-08-21T03:32:58;101089.72;;;19.03;86.86
15750;BME280;7976;52.526;13.326;2022-08-21T03:35:27;101094.25;;;19.01;87.06
15750;BME280;7976;52.526;13.326;2022-08-21T03:37:54;101088.94;;;19.01;86.49
15750;BME280;7976;52.526;13.326;2022-08-21T03:40:23;101096.91;;;19.01;86.50
15750;BME280;7976;52.526;13.326;2022-08-21T03:42:52;101097.13;;;18.98;86.17
15750;BME280;7976;52.526;13.326;2022-08-21T03:45:20;101090.41;;;18.93;86.02
15750;BME280;7976;52.526;13.326;2022-08-21T03:47:57;101094.97;;;18.91;86.47
15750;BME280;7976;52.526;13.326;2022-08-21T03:50:29;101096.03;;;18.88;86.02
15750;BME280;7976;52.526;13.326;2022-08-21T03:52:59;101097.00;;;18.87;86.04
15750;BME280;7976;52.526;13.326;2022-08-21T03:55:27;101100.88;;;18.82;85.68
15750;BME280;7976;52.526;13.326;2022-08-21T03:57:54;101087.72;;;18.80;86.41
15750;BME280;7976;52.526;13.326;2022-08-21T04:00:23;101101.81;;;18.81;86.26
15750;BME280;7976;52.526;13.326;2022-08-21T04:02:50;101104.47;;;18.81;86.19
15750;BME280;7976;52.526;13.326;2022-08-21T04:05:19;101098.34;;;18.80;86.06
15750;BME280;7976;52.526;13.326;2022-08-21T04:07:57;101102.03;;;18.77;86.13
15750;BME280;7976;52.526;13.326;2022-08-21T04:10:26;101105.84;;;18.73;85.68
15750;BME280;7976;52.526;13.326;2022-08-21T04:12:54;101106.66;;;18.74;85.90
15750;BME280;7976;52.526;13.326;2022-08-21T04:15:23;101109.31;;;18.74;85.98
15750;BME280;7976;52.526;13.326;2022-08-21T04:17:51;101103.19;;;18.73;85.41
15750;BME280;7976;52.526;13.326;2022-08-21T04:20:19;101113.91;;;18.72;85.55
15750;BME280;7976;52.526;13.326;2022-08-21T04:22:47;101106.13;;;18.69;85.33
15750;BME280;7976;52.526;13.326;2022-08-21T04:25:18;101113.25;;;18.68;85.57
15750;BME280;7976;52.526;13.326;2022-08-21T04:27:46;101112.38;;;18.68;84.99
15750;BME280;7976;52.526;13.326;2022-08-21T04:30:14;101111.53;;;18.67;85.11
15750;BME280;7976;52.526;13.326;2022-08-21T04:32:43;101110.69;;;18.67;84.91
15750;BME280;7976;52.526;13.326;2022-08-21T04:35:13;101106.97;;;18.69;84.85
15750;BME280;7976;52.526;13.326;2022-08-21T04:37:40;101114.94;;;18.69;84.64
15750;BME280;7976;52.526;13.326;2022-08-21T04:40:10;101106.22;;;18.67;84.89
15750;BME280;7976;52.526;13.326;2022-08-21T04:42:45;101108.03;;;18.67;84.90
15750;BME280;7976;52.526;13.326;2022-08-21T04:45:18;101112.38;;;18.68;85.13
15750;BME280;7976;52.526;13.326;2022-08-21T04:47:49;101111.53;;;18.67;84.38
15750;BME280;7976;52.526;13.326;2022-08-21T04:50:18;101112.38;;;18.68;84.78
15750;BME280;7976;52.526;13.326;2022-08-21T04:53:03;101117.91;;;18.65;84.82
15750;BME280;7976;52.526;13.326;2022-08-21T04:55:31;101119.03;;;18.61;84.90
15750;BME280;7976;52.526;13.326;2022-08-21T04:58:00;101116.59;;;18.58;84.88
15750;BME280;7976;52.526;13.326;2022-08-21T05:00:27;101122.84;;;18.57;84.62
15750;BME280;7976;52.526;13.326;2022-08-21T05:02:56;101121.88;;;18.58;85.09
15750;BME280;7976;52.526;13.326;2022-08-21T05:05:25;101110.53;;;18.56;84.54
15750;BME280;7976;52.526;13.326;2022-08-21T05:07:53;101121.97;;;18.56;84.34
15750;BME280;7976;52.526;13.326;2022-08-21T05:10:21;101116.69;;;18.56;84.82
15750;BME280;7976;52.526;13.326;2022-08-21T05:12:49;101116.78;;;18.55;84.60
15750;BME280;7976;52.526;13.326;2022-08-21T05:15:17;101119.53;;;18.53;84.13
15750;BME280;7976;52.526;13.326;2022-08-21T05:17:44;101119.63;;;18.52;84.44
15750;BME280;7976;52.526;13.326;2022-08-21T05:20:13;101125.88;;;18.51;84.25
15750;BME280;7976;52.526;13.326;2022-08-21T05:22:40;101124.94;;;18.52;84.34
15750;BME280;7976;52.526;13.326;2022-08-21T05:25:09;101124.84;;;18.53;84.15
15750;BME280;7976;52.526;13.326;2022-08-21T05:27:37;101126.53;;;18.54;84.61
15750;BME280;7976;52.526;13.326;2022-08-21T05:30:07;101128.31;;;18.54;84.14
15750;BME280;7976;52.526;13.326;2022-08-21T05:32:36;101136.38;;;18.52;83.75
15750;BME280;7976;52.526;13.326;2022-08-21T05:35:05;101132.91;;;18.52;83.78
15750;BME280;7976;52.526;13.326;2022-08-21T05:37:33;101141.41;;;18.57;84.15
15750;BME280;7976;52.526;13.326;2022-08-21T05:40:01;101136.66;;;18.62;84.05
15750;BME280;7976;52.526;13.326;2022-08-21T05:42:28;101136.34;;;18.66;83.48
15750;BME280;7976;52.526;13.326;2022-08-21T05:44:56;101138.81;;;18.69;83.80
15750;BME280;7976;52.526;13.326;2022-08-21T05:47:23;101139.25;;;18.76;83.91
15750;BME280;7976;52.526;13.326;2022-08-21T05:49:51;101143.06;;;18.72;83.07
15750;BME280;7976;52.526;13.326;2022-08-21T05:52:19;101149.97;;;18.74;82.81
15750;BME280;7976;52.526;13.326;2022-08-21T05:54:46;101149.88;;;18.76;83.15
15750;BME280;7976;52.526;13.326;2022-08-21T05:57:13;101151.38;;;18.80;83.19
15750;BME280;7976;52.526;13.326;2022-08-21T05:59:40;101156.50;;;18.83;83.08
15750;BME280;7976;52.526;13.326;2022-08-21T06:02:07;101150.97;;;18.86;82.68
15750;BME280;7976;52.526;13.326;2022-08-21T06:04:35;101152.78;;;18.86;82.89
15750;BME280;7976;52.526;13.326;2022-08-21T06:07:04;101154.38;;;18.88;82.92
15750;BME280;7976;52.526;13.326;2022-08-21T06:09:32;101155.16;;;18.90;82.61
15750;BME280;7976;52.526;13.326;2022-08-21T06:12:04;101160.25;;;18.93;82.55
15750;BME280;7976;52.526;13.326;2022-08-21T06:14:31;101156.72;;;18.93;82.58
15750;BME280;7976;52.526;13.326;2022-08-21T06:17:03;101152.28;;;18.93;82.98
15750;BME280;7976;52.526;13.326;2022-08-21T06:19:30;101151.16;;;18.97;82.65
15750;BME280;7976;52.526;13.326;2022-08-21T06:21:57;101147.53;;;18.98;82.80
15750;BME280;7976;52.526;13.326;2022-08-21T06:24:26;101149.22;;;18.99;82.63
15750;BME280;7976;52.526;13.326;2022-08-21T06:26:53;101148.28;;;19.00;82.16
15750;BME280;7976;52.526;13.326;2022-08-21T06:29:20;101149.97;;;19.01;82.45
15750;BME280;7976;52.526;13.326;2022-08-21T06:31:50;101147.88;;;19.06;82.62
15750;BME280;7976;52.526;13.326;2022-08-21T06:34:18;101148.75;;;19.07;82.29
15750;BME280;7976;52.526;13.326;2022-08-21T06:36:44;101155.09;;;19.04;82.18
15750;BME280;7976;52.526;13.326;2022-08-21T06:39:11;101158.69;;;19.03;82.19
15750;BME280;7976;52.526;13.326;2022-08-21T06:41:40;101154.97;;;19.06;81.68
15750;BME280;7976;52.526;13.326;2022-08-21T06:44:07;101152.53;;;19.03;82.04
15750;BME280;7976;52.526;13.326;2022-08-21T06:46:34;101158.69;;;19.03;82.28
15750;BME280;7976;52.526;13.326;2022-08-21T06:49:01;101154.91;;;19.07;82.05
15750;BME280;7976;52.526;13.326;2022-08-21T06:51:28;101158.09;;;19.12;81.86
15750;BME280;7976;52.526;13.326;2022-08-21T06:53:55;101155.03;;;19.18;81.90
15750;BME280;7976;52.526;13.326;2022-08-21T06:56:22;101158.13;;;19.25;81.63
15750;BME280;7976;52.526;13.326;2022-08-21T06:58:50;101153.59;;;19.27;81.53
15750;BME280;7976;52.526;13.326;2022-08-21T07:01:25;101153.09;;;19.34;81.46
15750;BME280;7976;52.526;13.326;2022-08-21T07:03:52;101157.16;;;19.40;81.29
15750;BME280;7976;52.526;13.326;2022-08-21T07:06:19;101151.34;;;19.47;81.06
15750;BME280;7976;52.526;13.326;2022-08-21T07:08:46;101159.63;;;19.55;80.81
15750;BME280;7976;52.526;13.326;2022-08-21T07:11:18;101156.75;;;19.58;80.70
15750;BME280;7976;52.526;13.326;2022-08-21T07:13:46;101148.38;;;19.64;80.22
15750;BME280;7976;52.526;13.326;2022-08-21T07:16:15;101147.22;;;19.68;80.11
15750;BME280;7976;52.526;13.326;2022-08-21T07:18:42;101147.88;;;19.72;79.40
15750;BME280;7976;52.526;13.326;2022-08-21T07:21:09;101143.94;;;19.77;79.14
15750;BME280;7976;52.526;13.326;2022-08-21T07:23:41;101141.81;;;19.82;79.35
15750;BME280;7976;52.526;13.326;2022-08-21T07:26:10;101148.28;;;19.91;78.77
15750;BME280;7976;52.526;13.326;2022-08-21T07:28:37;101147.66;;;20.00;78.69
15750;BME280;7976;52.526;13.326;2022-08-21T07:31:05;101141.28;;;20.03;78.28
15750;BME280;7976;52.526;13.326;2022-08-21T07:33:34;101142.13;;;20.03;77.96
15750;BME280;7976;52.526;13.326;2022-08-21T07:36:02;101138.19;;;20.09;77.26
15750;BME280;7976;52.526;13.326;2022-08-21T07:38:29;101140.41;;;20.15;76.43
15750;BME280;7976;52.526;13.326;2022-08-21T07:40:59;101132.81;;;20.23;76.08
15750;BME280;7976;52.526;13.326;2022-08-21T07:43:28;101137.03;;;20.25;75.13
15750;BME280;7976;52.526;13.326;2022-08-21T07:45:55;101145.41;;;20.32;75.28
15750;BME280;7976;52.526;13.326;2022-08-21T07:48:22;101142.13;;;20.41;74.78
15750;BME280;7976;52.526;13.326;2022-08-21T07:50:51;101135.59;;;20.45;74.94
15750;BME280;7976;52.526;13.326;2022-08-21T07:53:18;101139.66;;;20.50;74.17
15750;BME280;7976;52.526;13.326;2022-08-21T07:55:45;101146.13;;;20.59;74.09
15750;BME280;7976;52.526;13.326;2022-08-21T07:58:11;101140.34;;;20.65;73.58
15750;BME280;7976;52.526;13.326;2022-08-21T08:00:39;101140.78;;;20.71;72.89
15750;BME280;7976;52.526;13.326;2022-08-21T08:03:06;101138.72;;;20.75;72.83
15750;BME280;7976;52.526;13.326;2022-08-21T08:05:34;101140.19;;;20.79;72.20
15750;BME280;7976;52.526;13.326;2022-08-21T08:08:04;101144.34;;;20.83;72.21
15750;BME280;7976;52.526;13.326;2022-08-21T08:10:31;101144.13;;;20.86;71.02
15750;BME280;7976;52.526;13.326;2022-08-21T08:12:58;101135.66;;;20.92;71.21
15750;BME280;7976;52.526;13.326;2022-08-21T08:15:27;101134.28;;;20.99;70.94
15750;BME280;7976;52.526;13.326;2022-08-21T08:17:56;101130.22;;;21.06;70.44
15750;BME280;7976;52.526;13.326;2022-08-21T08:20:24;101134.34;;;21.10;69.52
15750;BME280;7976;52.526;13.326;2022-08-21T08:22:52;101135.81;;;21.14;68.96
15750;BME280;7976;52.526;13.326;2022-08-21T08:25:22;101138.75;;;21.22;68.69
15750;BME280;7976;52.526;13.326;2022-08-21T08:27:49;101138.31;;;21.28;68.09
15750;BME280;7976;52.526;13.326;2022-08-21T08:32:46;101135.78;;;21.38;66.82
15750;BME280;7976;52.526;13.326;2022-08-21T08:35:14;101134.69;;;21.40;66.24
15750;BME280;7976;52.526;13.326;2022-08-21T08:37:41;101139.81;;;21.43;65.75
15750;BME280;7976;52.526;13.326;2022-08-21T08:40:14;101144.06;;;21.46;65.60
15750;BME280;7976;52.526;13.326;2022-08-21T08:42:46;101143.09;;;21.47;64.68
15750;BME280;7976;52.526;13.326;2022-08-21T08:45:18;101150.59;;;21.42;64.02
15750;BME280;7976;52.526;13.326;2022-08-21T08:47:52;101145.34;;;21.40;63.21
15750;BME280;7976;52.526;13.326;2022-08-21T08:50:28;101143.44;;;21.42;63.20
15750;BME280;7976;52.526;13.326;2022-08-21T08:53:02;101145.78;;;21.47;63.07
15750;BME280;7976;52.526;13.326;2022-08-21T08:55:36;101135.81;;;21.49;62.21
15750;BME280;7976;52.526;13.326;2022-08-21T08:58:05;101133.44;;;21.57;62.84
15750;BME280;7976;52.526;13.326;2022-08-21T09:00:33;101132.09;;;21.62;62.15
15750;BME280;7976;52.526;13.326;2022-08-21T09:03:02;101126.53;;;21.65;61.99
15750;BME280;7976;52.526;13.326;2022-08-21T09:05:40;101132.84;;;21.64;61.54
15750;BME280;7976;52.526;13.326;2022-08-21T09:08:32;101127.28;;;21.67;61.28
15750;BME280;7976;52.526;13.326;2022-08-21T09:11:13;101134.06;;;21.71;61.54
15750;BME280;7976;52.526;13.326;2022-08-21T09:14:03;101129.25;;;21.76;61.80
15750;BME280;7976;52.526;13.326;2022-08-21T09:16:46;101135.09;;;21.81;61.33
15750;BME280;7976;52.526;13.326;2022-08-21T09:19:31;101137.75;;;21.81;60.74
15750;BME280;7976;52.526;13.326;2022-08-21T09:22:12;101136.91;;;21.81;60.64
15750;BME280;7976;52.526;13.326;2022-08-21T09:24:54;101136.53;;;21.85;61.38
15750;BME280;7976;52.526;13.326;2022-08-21T09:27:26;101136.31;;;21.88;61.07
15750;BME280;7976;52.526;13.326;2022-08-21T09:29:54;101131.94;;;21.87;60.69
15750;BME280;7976;52.526;13.326;2022-08-21T09:32:27;101130.50;;;21.83;60.35
15750;BME280;7976;52.526;13.326;2022-08-21T09:34:58;101131.22;;;21.85;59.88
15750;BME280;7976;52.526;13.326;2022-08-21T09:37:28;101129.78;;;21.81;59.89
15750;BME280;7976;52.526;13.326;2022-08-21T09:39:56;101129.53;;;21.84;60.54
15750;BME280;7976;52.526;13.326;2022-08-21T09:42:31;101131.00;;;21.88;60.83
15750;BME280;7976;52.526;13.326;2022-08-21T09:45:16;101125.28;;;21.93;60.61
15750;BME280;7976;52.526;13.326;2022-08-21T09:47:43;101130.38;;;21.96;60.46
15750;BME280;7976;52.526;13.326;2022-08-21T09:50:14;101124.47;;;22.03;60.17
15750;BME280;7976;52.526;13.326;2022-08-21T09:52:49;101127.13;;;22.14;60.04
15750;BME280;7976;52.526;13.326;2022-08-21T09:55:33;101122.28;;;22.19;60.07
15750;BME280;7976;52.526;13.326;2022-08-21T09:58:20;101118.75;;;22.19;59.45
15750;BME280;7976;52.526;13.326;2022-08-21T10:00:58;101120.22;;;22.23;58.46
15750;BME280;7976;52.526;13.326;2022-08-21T10:03:25;101130.63;;;22.26;58.17
15750;BME280;7976;52.526;13.326;2022-08-21T10:05:57;101127.50;;;22.32;57.50
15750;BME280;7976;52.526;13.326;2022-08-21T10:08:28;101127.38;;;22.33;56.96
15750;BME280;7976;52.526;13.326;2022-08-21T10:11:02;101123.22;;;22.40;56.82
15750;BME280;7976;52.526;13.326;2022-08-21T10:13:46;101124.56;;;22.46;56.58
15750;BME280;7976;52.526;13.326;2022-08-21T10:16:34;101125.91;;;22.52;56.39
15750;BME280;7976;52.526;13.326;2022-08-21T10:19:18;101115.81;;;22.77;55.48
15750;BME280;7976;52.526;13.326;2022-08-21T10:22:07;101118.50;;;22.77;56.15
15750;BME280;7976;52.526;13.326;2022-08-21T10:24:48;101127.78;;;22.83;55.86
15750;BME280;7976;52.526;13.326;2022-08-21T10:27:28;101127.31;;;22.89;55.54
15750;BME280;7976;52.526;13.326;2022-08-21T10:30:04;101130.31;;;22.95;54.61
15750;BME280;7976;52.526;13.326;2022-08-21T10:32:53;101122.44;;;22.94;54.50
15750;BME280;7976;52.526;13.326;2022-08-21T10:35:26;101123.50;;;23.02;54.41
15750;BME280;7976;52.526;13.326;2022-08-21T10:38:35;101126.47;;;23.20;54.87
15750;BME280;7976;52.526;13.326;2022-08-21T10:41:14;101127.28;;;23.31;55.00
15750;BME280;7976;52.526;13.326;2022-08-21T10:43:57;101129.59;;;23.36;54.67
15750;BME280;7976;52.526;13.326;2022-08-21T10:46:43;101112.09;;;23.32;54.19
15750;BME280;7976;52.526;13.326;2022-08-21T10:49:27;101120.25;;;23.30;54.39
15750;BME280;7976;52.526;13.326;2022-08-21T10:52:22;101120.25;;;23.30;54.13
15750;BME280;7976;52.526;13.326;2022-08-21T10:54:59;101127.03;;;23.34;54.26
15750;BME280;7976;52.526;13.326;2022-08-21T10:57:34;101125.41;;;23.43;53.58
15750;BME280;7976;52.526;13.326;2022-08-21T11:00:08;101117.59;;;23.51;52.43
15750;BME280;7976;52.526;13.326;2022-08-21T11:02:41;101117.13;;;23.67;52.22
15750;BME280;7976;52.526;13.326;2022-08-21T11:05:18;101120.84;;;23.75;51.19
15750;BME280;7976;52.526;13.326;2022-08-21T11:07:53;101118.13;;;23.86;49.88
15750;BME280;7976;52.526;13.326;2022-08-21T11:10:26;101119.84;;;23.97;49.20
15750;BME280;7976;52.526;13.326;2022-08-21T11:13:00;101123.56;;;24.05;48.74
15750;BME280;7976;52.526;13.326;2022-08-21T11:15:38;101119.84;;;24.17;47.87
15750;BME280;7976;52.526;13.326;2022-08-21T11:18:21;101121.59;;;24.28;48.02
15750;BME280;7976;52.526;13.326;2022-08-21T11:21:03;101124.56;;;24.34;47.55
15750;BME280;7976;52.526;13.326;2022-08-21T11:23:41;101120.03;;;24.35;47.15
15750;BME280;7976;52.526;13.326;2022-08-21T11:26:17;101117.31;;;24.25;47.27
15750;BME280;7976;52.526;13.326;2022-08-21T11:28:53;101109.41;;;24.14;46.80
15750;BME280;7976;52.526;13.326;2022-08-21T11:31:44;101111.22;;;24.14;46.75
15750;BME280;7976;52.526;13.326;2022-08-21T11:34:36;101108.72;;;24.22;46.72
15750;BME280;7976;52.526;13.326;2022-08-21T11:37:23;101117.06;;;24.28;46.46
15750;BME280;7976;52.526;13.326;2022-08-21T11:40:08;101125.34;;;24.25;46.63
15750;BME280;7976;52.526;13.326;2022-08-21T11:42:55;101117.16;;;24.17;46.66
15750;BME280;7976;52.526;13.326;2022-08-21T11:45:35;101107.13;;;24.10;46.82
15750;BME280;7976;52.526;13.326;2022-08-21T11:48:24;101102.47;;;24.12;47.42
15750;BME280;7976;52.526;13.326;2022-08-21T11:51:00;101090.41;;;24.17;47.63
15750;BME280;7976;52.526;13.326;2022-08-21T11:53:38;101102.41;;;24.23;47.26
15750;BME280;7976;52.526;13.326;2022-08-21T11:56:11;101098.31;;;24.28;47.66
15750;BME280;7976;52.526;13.326;2022-08-21T11:58:44;101111.19;;;24.34;47.54
15750;BME280;7976;52.526;13.326;2022-08-21T12:01:19;101106.66;;;24.35;46.38
15750;BME280;7976;52.526;13.326;2022-08-21T12:03:56;101105.97;;;24.33;46.50
15750;BME280;7976;52.526;13.326;2022-08-21T12:06:32;101109.47;;;24.33;46.86
15750;BME280;7976;52.526;13.326;2022-08-21T12:09:06;101104.97;;;24.34;47.49
15750;BME280;7976;52.526;13.326;2022-08-21T12:11:50;101101.88;;;24.38;47.02
15750;BME280;7976;52.526;13.326;2022-08-21T12:14:19;101095.56;;;24.39;46.33
15750;BME280;7976;52.526;13.326;2022-08-21T12:16:48;101098.66;;;24.44;46.15
15750;BME280;7976;52.526;13.326;2022-08-21T12:19:30;101097.97;;;24.52;46.22
15750;BME280;7976;52.526;13.326;2022-08-21T12:22:08;101096.16;;;24.52;46.29
15750;BME280;7976;52.526;13.326;2022-08-21T12:24:41;101087.69;;;24.57;46.51
15750;BME280;7976;52.526;13.326;2022-08-21T12:27:23;101084.06;;;24.67;46.43
15750;BME280;7976;52.526;13.326;2022-08-21T12:29:56;101093.00;;;24.77;46.34
15750;BME280;7976;52.526;13.326;2022-08-21T12:32:28;101098.50;;;24.86;46.83
15750;BME280;7976;52.526;13.326;2022-08-21T12:35:04;101091.88;;;24.90;46.24
15750;BME280;7976;52.526;13.326;2022-08-21T12:37:41;101092.59;;;24.92;45.97
15750;BME280;7976;52.526;13.326;2022-08-21T12:40:30;101092.31;;;24.95;45.66
15750;BME280;7976;52.526;13.326;2022-08-21T12:43:00;101092.03;;;24.98;45.76
15750;BME280;7976;52.526;13.326;2022-08-21T12:45:31;101092.44;;;25.03;45.49
15750;BME280;7976;52.526;13.326;2022-08-21T12:48:06;101085.25;;;25.03;45.66
15750;BME280;7976;52.526;13.326;2022-08-21T12:50:40;101084.13;;;25.06;45.94
15750;BME280;7976;52.526;13.326;2022-08-21T12:53:15;101085.13;;;25.05;45.52
15750;BME280;7976;52.526;13.326;2022-08-21T12:55:51;101078.47;;;24.99;46.09
15750;BME280;7976;52.526;13.326;2022-08-21T12:58:21;101073.25;;;24.98;46.38
15750;BME280;7976;52.526;13.326;2022-08-21T13:00:53;101077.22;;;25.03;46.02
15750;BME280;7976;52.526;13.326;2022-08-21T13:03:22;101076.22;;;25.04;46.24
15750;BME280;7976;52.526;13.326;2022-08-21T13:05:51;101080.59;;;25.05;45.95
15750;BME280;7976;52.526;13.326;2022-08-21T13:08:21;101074.41;;;25.05;45.81
15750;BME280;7976;52.526;13.326;2022-08-21T13:11:00;101078.19;;;25.02;46.63
15750;BME280;7976;52.526;13.326;2022-08-21T13:13:29;101075.50;;;25.02;46.63
15750;BME280;7976;52.526;13.326;2022-08-21T13:15:59;101077.66;;;25.08;46.64